sensor_id;sensor_type;location;lat;lon;timestamp;temperature;humidity
12130;DHT22;6128;59.340;18.040;2023-04-15T00:02:14;3.60;99.90
12130;DHT22;6128;59.340;18.040;2023-04-15T00:04:43;3.60;99.90
12130;DHT22;6128;59.340;18.040;2023-04-15T00:07:11;3.60;99.90
12130;DHT22;6128;59.340;18.040;2023-04-15T00:09:40;3.60;99.90
12130;DHT22;6128;59.340;18.040;2023-04-15T00:12:07;3.60;99.90
12130;DHT22;6128;59.340;18.040;2023-04-15T00:14:34;3.60;99.90
12130;DHT22;6128;59.340;18.040;2023-04-15T00:17:02;3.60;99.90
12130;DHT22;6128;59.340;18.040;2023-04-15T00:19:30;3.60;99.90
12130;DHT22;6128;59.340;18.040;2023-04-15T00:21:58;3.60;99.90
12130;DHT22;6128;59.340;18.040;2023-04-15T00:24:26;3.60;99.90
12130;DHT22;6128;59.340;18.040;2023-04-15T00:26:54;3.60;99.90
12130;DHT22;6128;59.340;18.040;2023-04-15T00:29:21;3.60;99.90
12130;DHT22;6128;59.340;18.040;2023-04-15T00:31:48;3.60;99.90
12130;DHT22;6128;59.340;18.040;2023-04-15T00:34:15;3.60;99.90
12130;DHT22;6128;59.340;18.040;2023-04-15T00:36:42;3.60;99.90
12130;DHT22;6128;59.340;18.040;2023-04-15T00:39:09;3.60;99.90
12130;DHT22;6128;59.340;18.040;2023-04-15T00:41:38;3.60;99.90
12130;DHT22;6128;59.340;18.040;2023-04-15T00:44:05;3.60;99.90
12130;DHT22;6128;59.340;18.040;2023-04-15T00:46:35;3.60;99.90
12130;DHT22;6128;59.340;18.040;2023-04-15T00:49:03;3.50;99.90
12130;DHT22;6128;59.340;18.040;2023-04-15T00:51:31;3.60;99.90
12130;DHT22;6128;59.340;18.040;2023-04-15T00:54:01;3.60;99.90
12130;DHT22;6128;59.340;18.040;2023-04-15T00:56:28;3.50;99.90
12130;DHT22;6128;59.340;18.040;2023-04-15T00:58:58;3.50;99.90
12130;DHT22;6128;59.340;18.040;2023-04-15T01:01:25;3.60;99.90
12130;DHT22;6128;59.340;18.040;2023-04-15T01:03:55;3.50;99.90
12130;DHT22;6128;59.340;18.040;2023-04-15T01:06:23;3.50;99.90
12130;DHT22;6128;59.340;18.040;2023-04-15T01:08:50;3.60;99.90
12130;DHT22;6128;59.340;18.040;2023-04-15T01:11:18;3.60;99.90
12130;DHT22;6128;59.340;18.040;2023-04-15T01:13:45;3.50;99.90
12130;DHT22;6128;59.340;18.040;2023-04-15T01:16:14;3.60;99.90
12130;DHT22;6128;59.340;18.040;2023-04-15T01:18:42;3.60;99.90
12130;DHT22;6128;59.340;18.040;2023-04-15T01:21:09;3.60;99.90
12130;DHT22;6128;59.340;18.040;2023-04-15T01:23:38;3.60;99.90
12130;DHT22;6128;59.340;18.040;2023-04-15T01:26:07;3.60;99.90
12130;DHT22;6128;59.340;18.040;2023-04-15T01:28:35;3.60;99.90
12130;DHT22;6128;59.340;18.040;2023-04-15T01:31:06;3.60;99.90
12130;DHT22;6128;59.340;18.040;2023-04-15T01:33:33;3.60;99.90
12130;DHT22;6128;59.340;18.040;2023-04-15T01:36:01;3.60;99.90
12130;DHT22;6128;59.340;18.040;2023-04-15T01:38:29;3.60;99.90
12130;DHT22;6128;59.340;18.040;2023-04-15T01:40:57;3.60;99.90
12130;DHT22;6128;59.340;18.040;2023-04-15T01:43:25;3.70;99.90
12130;DHT22;6128;59.340;18.040;2023-04-15T01:45:53;3.70;99.90
12130;DHT22;6128;59.340;18.040;2023-04-15T01:48:20;3.70;99.90
12130;DHT22;6128;59.340;18.040;2023-04-15T01:50:47;3.70;99.90
12130;DHT22;6128;59.340;18.040;2023-04-15T01:53:14;3.80;99.90
12130;DHT22;6128;59.340;18.040;2023-04-15T01:55:42;3.80;99.90
12130;DHT22;6128;59.340;18.040;2023-04-15T01:58:09;3.80;99.90
12130;DHT22;6128;59.340;18.040;2023-04-15T02:00:37;3.80;99.90
12130;DHT22;6128;59.340;18.040;2023-04-15T02:03:05;3.80;99.90
12130;DHT22;6128;59.340;18.040;2023-04-15T02:05:32;3.90;99.90
12130;DHT22;6128;59.340;18.040;2023-04-15T02:07:59;3.90;99.90
12130;DHT22;6128;59.340;18.040;2023-04-15T02:10:26;3.90;99.90
12130;DHT22;6128;59.340;18.040;2023-04-15T02:12:53;3.90;99.90
12130;DHT22;6128;59.340;18.040;2023-04-15T02:15:21;4.00;99.90
12130;DHT22;6128;59.340;18.040;2023-04-15T02:17:49;4.00;99.90
12130;DHT22;6128;59.340;18.040;2023-04-15T02:20:20;4.00;99.90
12130;DHT22;6128;59.340;18.040;2023-04-15T02:22:47;4.00;99.90
12130;DHT22;6128;59.340;18.040;2023-04-15T02:25:14;4.00;99.90
12130;DHT22;6128;59.340;18.040;2023-04-15T02:27:42;4.00;99.90
12130;DHT22;6128;59.340;18.040;2023-04-15T02:30:10;4.00;99.90
12130;DHT22;6128;59.340;18.040;2023-04-15T02:32:37;4.10;99.90
12130;DHT22;6128;59.340;18.040;2023-04-15T02:35:07;4.10;99.90
12130;DHT22;6128;59.340;18.040;2023-04-15T02:37:35;4.10;99.90
12130;DHT22;6128;59.340;18.040;2023-04-15T02:40:07;4.10;99.90
12130;DHT22;6128;59.340;18.040;2023-04-15T02:42:36;4.10;99.90
12130;DHT22;6128;59.340;18.040;2023-04-15T02:45:05;4.10;99.90
12130;DHT22;6128;59.340;18.040;2023-04-15T02:47:32;4.10;99.90
12130;DHT22;6128;59.340;18.040;2023-04-15T02:50:01;4.10;99.90
12130;DHT22;6128;59.340;18.040;2023-04-15T02:52:30;4.10;99.90
12130;DHT22;6128;59.340;18.040;2023-04-15T02:54:57;4.10;99.90
12130;DHT22;6128;59.340;18.040;2023-04-15T02:57:27;4.10;99.90
12130;DHT22;6128;59.340;18.040;2023-04-15T02:59:54;4.10;99.90
12130;DHT22;6128;59.340;18.040;2023-04-15T03:02:21;4.10;99.90
12130;DHT22;6128;59.340;18.040;2023-04-15T03:04:48;4.10;99.90
12130;DHT22;6128;59.340;18.040;2023-04-15T03:07:17;4.10;99.90
12130;DHT22;6128;59.340;18.040;2023-04-15T03:09:46;4.20;99.90
12130;DHT22;6128;59.340;18.040;2023-04-15T03:12:13;4.20;99.90
12130;DHT22;6128;59.340;18.040;2023-04-15T03:14:40;4.20;99.90
12130;DHT22;6128;59.340;18.040;2023-04-15T03:17:07;4.10;99.90
12130;DHT22;6128;59.340;18.040;2023-04-15T03:19:35;4.20;99.90
12130;DHT22;6128;59.340;18.040;2023-04-15T03:22:07;4.20;99.90
12130;DHT22;6128;59.340;18.040;2023-04-15T03:24:36;4.20;99.90
12130;DHT22;6128;59.340;18.040;2023-04-15T03:27:05;4.10;99.90
12130;DHT22;6128;59.340;18.040;2023-04-15T03:29:33;4.20;99.90
12130;DHT22;6128;59.340;18.040;2023-04-15T03:32:00;4.20;99.90
12130;DHT22;6128;59.340;18.040;2023-04-15T03:34:27;4.20;99.90
12130;DHT22;6128;59.340;18.040;2023-04-15T03:36:55;4.20;99.90
12130;DHT22;6128;59.340;18.040;2023-04-15T03:39:22;4.20;99.90
12130;DHT22;6128;59.340;18.040;2023-04-15T03:41:49;4.20;99.90
12130;DHT22;6128;59.340;18.040;2023-04-15T03:44:18;4.30;99.90
12130;DHT22;6128;59.340;18.040;2023-04-15T03:46:45;4.30;99.90
12130;DHT22;6128;59.340;18.040;2023-04-15T03:49:13;4.30;99.90
12130;DHT22;6128;59.340;18.040;2023-04-15T03:51:40;4.30;99.90
12130;DHT22;6128;59.340;18.040;2023-04-15T03:54:07;4.30;99.90
12130;DHT22;6128;59.340;18.040;2023-04-15T03:56:34;4.30;99.90
12130;DHT22;6128;59.340;18.040;2023-04-15T03:59:01;4.40;99.90
12130;DHT22;6128;59.340;18.040;2023-04-15T04:01:30;4.40;99.90
12130;DHT22;6128;59.340;18.040;2023-04-15T04:03:57;4.40;99.90
12130;DHT22;6128;59.340;18.040;2023-04-15T04:06:24;4.40;99.90
12130;DHT22;6128;59.340;18.040;2023-04-15T04:08:51;4.40;99.90
12130;DHT22;6128;59.340;18.040;2023-04-15T04:11:18;4.50;99.90
12130;DHT22;6128;59.340;18.040;2023-04-15T04:13:45;4.50;99.90
12130;DHT22;6128;59.340;18.040;2023-04-15T04:16:12;4.50;99.90
12130;DHT22;6128;59.340;18.040;2023-04-15T04:18:41;4.60;99.90
12130;DHT22;6128;59.340;18.040;2023-04-15T04:21:08;4.60;99.90
12130;DHT22;6128;59.340;18.040;2023-04-15T04:23:35;4.60;99.90
12130;DHT22;6128;59.340;18.040;2023-04-15T04:26:02;4.60;99.90
12130;DHT22;6128;59.340;18.040;2023-04-15T04:28:31;4.60;99.90
12130;DHT22;6128;59.340;18.040;2023-04-15T04:30:58;4.70;99.90
12130;DHT22;6128;59.340;18.040;2023-04-15T04:33:25;4.70;99.90
12130;DHT22;6128;59.340;18.040;2023-04-15T04:35:54;4.70;99.90
12130;DHT22;6128;59.340;18.040;2023-04-15T04:38:21;4.70;99.90
12130;DHT22;6128;59.340;18.040;2023-04-15T04:40:48;4.70;99.90
12130;DHT22;6128;59.340;18.040;2023-04-15T04:43:16;4.60;99.90
12130;DHT22;6128;59.340;18.040;2023-04-15T04:45:43;4.60;99.90
12130;DHT22;6128;59.340;18.040;2023-04-15T04:48:10;4.60;99.90
12130;DHT22;6128;59.340;18.040;2023-04-15T04:50:37;4.60;99.90
12130;DHT22;6128;59.340;18.040;2023-04-15T04:53:06;4.60;99.90
12130;DHT22;6128;59.340;18.040;2023-04-15T04:55:33;4.60;99.90
12130;DHT22;6128;59.340;18.040;2023-04-15T04:58:01;4.70;99.90
12130;DHT22;6128;59.340;18.040;2023-04-15T05:00:29;4.70;99.90
12130;DHT22;6128;59.340;18.040;2023-04-15T05:02:56;4.70;99.90
12130;DHT22;6128;59.340;18.040;2023-04-15T05:05:23;4.70;99.90
12130;DHT22;6128;59.340;18.040;2023-04-15T05:07:50;4.60;99.90
12130;DHT22;6128;59.340;18.040;2023-04-15T05:10:19;4.70;99.90
12130;DHT22;6128;59.340;18.040;2023-04-15T05:12:46;4.70;99.90
12130;DHT22;6128;59.340;18.040;2023-04-15T05:15:13;4.70;99.90
12130;DHT22;6128;59.340;18.040;2023-04-15T05:17:40;4.80;99.90
12130;DHT22;6128;59.340;18.040;2023-04-15T05:20:08;4.80;99.90
12130;DHT22;6128;59.340;18.040;2023-04-15T05:22:36;4.90;99.90
12130;DHT22;6128;59.340;18.040;2023-04-15T05:25:04;4.90;99.90
12130;DHT22;6128;59.340;18.040;2023-04-15T05:27:32;4.90;99.90
12130;DHT22;6128;59.340;18.040;2023-04-15T05:29:59;4.90;99.90
12130;DHT22;6128;59.340;18.040;2023-04-15T05:32:27;4.90;99.90
12130;DHT22;6128;59.340;18.040;2023-04-15T05:34:54;4.90;99.90
12130;DHT22;6128;59.340;18.040;2023-04-15T05:37:21;4.90;99.90
12130;DHT22;6128;59.340;18.040;2023-04-15T05:39:48;5.00;99.90
12130;DHT22;6128;59.340;18.040;2023-04-15T05:42:15;5.00;99.90
12130;DHT22;6128;59.340;18.040;2023-04-15T05:44:44;5.10;99.90
12130;DHT22;6128;59.340;18.040;2023-04-15T05:47:11;5.10;99.90
12130;DHT22;6128;59.340;18.040;2023-04-15T05:49:38;5.10;99.90
12130;DHT22;6128;59.340;18.040;2023-04-15T05:52:05;5.10;99.90
12130;DHT22;6128;59.340;18.040;2023-04-15T05:54:33;5.20;99.90
12130;DHT22;6128;59.340;18.040;2023-04-15T05:57:00;5.20;99.90
12130;DHT22;6128;59.340;18.040;2023-04-15T05:59:27;5.30;99.90
12130;DHT22;6128;59.340;18.040;2023-04-15T06:01:56;5.30;99.90
12130;DHT22;6128;59.340;18.040;2023-04-15T06:04:23;5.30;99.90
12130;DHT22;6128;59.340;18.040;2023-04-15T06:06:50;5.40;99.90
12130;DHT22;6128;59.340;18.040;2023-04-15T06:09:17;5.50;99.90
12130;DHT22;6128;59.340;18.040;2023-04-15T06:11:44;5.60;99.90
12130;DHT22;6128;59.340;18.040;2023-04-15T06:14:12;5.60;99.90
12130;DHT22;6128;59.340;18.040;2023-04-15T06:16:39;5.70;99.90
12130;DHT22;6128;59.340;18.040;2023-04-15T06:19:07;5.70;99.90
12130;DHT22;6128;59.340;18.040;2023-04-15T06:21:34;5.80;99.90
12130;DHT22;6128;59.340;18.040;2023-04-15T06:24:01;5.90;99.90
12130;DHT22;6128;59.340;18.040;2023-04-15T06:26:28;6.00;99.90
12130;DHT22;6128;59.340;18.040;2023-04-15T06:28:56;6.10;99.90
12130;DHT22;6128;59.340;18.040;2023-04-15T06:31:23;6.20;99.90
12130;DHT22;6128;59.340;18.040;2023-04-15T06:33:50;6.30;99.90
12130;DHT22;6128;59.340;18.040;2023-04-15T06:36:19;6.50;99.90
12130;DHT22;6128;59.340;18.040;2023-04-15T06:38:46;7.10;99.90
12130;DHT22;6128;59.340;18.040;2023-04-15T06:41:13;8.00;99.90
12130;DHT22;6128;59.340;18.040;2023-04-15T06:43:40;8.60;99.90
12130;DHT22;6128;59.340;18.040;2023-04-15T06:46:07;9.10;99.90
12130;DHT22;6128;59.340;18.040;2023-04-15T06:48:35;9.80;99.90
12130;DHT22;6128;59.340;18.040;2023-04-15T06:51:02;10.20;99.90
12130;DHT22;6128;59.340;18.040;2023-04-15T06:53:30;10.60;99.90
12130;DHT22;6128;59.340;18.040;2023-04-15T06:55:58;10.80;99.90
12130;DHT22;6128;59.340;18.040;2023-04-15T06:58:25;10.90;99.90
12130;DHT22;6128;59.340;18.040;2023-04-15T07:00:52;11.10;99.90
12130;DHT22;6128;59.340;18.040;2023-04-15T07:03:19;11.50;99.90
12130;DHT22;6128;59.340;18.040;2023-04-15T07:05:47;11.40;99.90
12130;DHT22;6128;59.340;18.040;2023-04-15T07:08:14;11.60;99.90
12130;DHT22;6128;59.340;18.040;2023-04-15T07:10:43;11.50;99.90
12130;DHT22;6128;59.340;18.040;2023-04-15T07:13:10;11.90;99.90
12130;DHT22;6128;59.340;18.040;2023-04-15T07:15:37;12.30;99.90
12130;DHT22;6128;59.340;18.040;2023-04-15T07:18:04;12.70;99.90
12130;DHT22;6128;59.340;18.040;2023-04-15T07:20:31;13.10;99.90
12130;DHT22;6128;59.340;18.040;2023-04-15T07:22:58;13.50;99.90
12130;DHT22;6128;59.340;18.040;2023-04-15T07:25:25;13.10;99.90
12130;DHT22;6128;59.340;18.040;2023-04-15T07:27:53;12.80;99.90
12130;DHT22;6128;59.340;18.040;2023-04-15T07:30:20;12.70;99.90
12130;DHT22;6128;59.340;18.040;2023-04-15T07:32:48;12.70;99.90
12130;DHT22;6128;59.340;18.040;2023-04-15T07:35:15;12.40;99.90
12130;DHT22;6128;59.340;18.040;2023-04-15T07:37:42;12.70;99.90
12130;DHT22;6128;59.340;18.040;2023-04-15T07:40:10;13.20;99.90
12130;DHT22;6128;59.340;18.040;2023-04-15T07:42:40;13.50;99.90
12130;DHT22;6128;59.340;18.040;2023-04-15T07:45:10;13.80;99.90
12130;DHT22;6128;59.340;18.040;2023-04-15T07:47:37;13.60;99.90
12130;DHT22;6128;59.340;18.040;2023-04-15T07:50:06;13.50;99.90
12130;DHT22;6128;59.340;18.040;2023-04-15T07:52:33;13.60;99.90
12130;DHT22;6128;59.340;18.040;2023-04-15T07:55:04;13.30;99.90
12130;DHT22;6128;59.340;18.040;2023-04-15T07:57:32;13.40;99.90
12130;DHT22;6128;59.340;18.040;2023-04-15T08:00:00;13.20;99.90
12130;DHT22;6128;59.340;18.040;2023-04-15T08:02:30;12.70;99.90
12130;DHT22;6128;59.340;18.040;2023-04-15T08:04:57;12.50;99.90
12130;DHT22;6128;59.340;18.040;2023-04-15T08:07:26;12.40;99.90
12130;DHT22;6128;59.340;18.040;2023-04-15T08:09:53;12.30;99.90
12130;DHT22;6128;59.340;18.040;2023-04-15T08:12:20;12.00;99.90
12130;DHT22;6128;59.340;18.040;2023-04-15T08:14:47;12.40;99.90
12130;DHT22;6128;59.340;18.040;2023-04-15T08:17:14;12.30;99.90
12130;DHT22;6128;59.340;18.040;2023-04-15T08:19:43;11.80;99.90
12130;DHT22;6128;59.340;18.040;2023-04-15T08:22:10;11.70;99.90
12130;DHT22;6128;59.340;18.040;2023-04-15T08:24:37;11.60;99.90
12130;DHT22;6128;59.340;18.040;2023-04-15T08:27:05;11.70;99.90
12130;DHT22;6128;59.340;18.040;2023-04-15T08:29:32;11.60;99.90
12130;DHT22;6128;59.340;18.040;2023-04-15T08:32:00;11.60;99.90
12130;DHT22;6128;59.340;18.040;2023-04-15T08:34:28;11.60;99.90
12130;DHT22;6128;59.340;18.040;2023-04-15T08:36:56;11.70;99.90
12130;DHT22;6128;59.340;18.040;2023-04-15T08:39:23;11.80;99.90
12130;DHT22;6128;59.340;18.040;2023-04-15T08:41:58;12.20;99.90
12130;DHT22;6128;59.340;18.040;2023-04-15T08:44:29;12.60;99.90
12130;DHT22;6128;59.340;18.040;2023-04-15T08:47:00;12.50;99.90
12130;DHT22;6128;59.340;18.040;2023-04-15T08:49:28;12.90;99.90
12130;DHT22;6128;59.340;18.040;2023-04-15T08:51:58;13.20;99.90
12130;DHT22;6128;59.340;18.040;2023-04-15T08:54:26;12.70;99.90
12130;DHT22;6128;59.340;18.040;2023-04-15T08:56:54;12.20;99.90
12130;DHT22;6128;59.340;18.040;2023-04-15T08:59:23;12.10;99.90
12130;DHT22;6128;59.340;18.040;2023-04-15T09:01:50;12.50;99.90
12130;DHT22;6128;59.340;18.040;2023-04-15T09:04:18;13.20;99.90
12130;DHT22;6128;59.340;18.040;2023-04-15T09:06:46;13.90;99.90
12130;DHT22;6128;59.340;18.040;2023-04-15T09:09:14;14.80;99.90
12130;DHT22;6128;59.340;18.040;2023-04-15T09:11:42;15.20;99.90
12130;DHT22;6128;59.340;18.040;2023-04-15T09:14:09;15.10;99.90
12130;DHT22;6128;59.340;18.040;2023-04-15T09:16:55;15.40;99.90
12130;DHT22;6128;59.340;18.040;2023-04-15T09:19:23;14.40;99.90
12130;DHT22;6128;59.340;18.040;2023-04-15T09:21:53;13.30;99.90
12130;DHT22;6128;59.340;18.040;2023-04-15T09:24:23;11.90;99.90
12130;DHT22;6128;59.340;18.040;2023-04-15T09:26:52;10.90;99.90
12130;DHT22;6128;59.340;18.040;2023-04-15T09:29:24;10.10;99.90
12130;DHT22;6128;59.340;18.040;2023-04-15T09:31:51;9.90;99.90
12130;DHT22;6128;59.340;18.040;2023-04-15T09:34:18;9.80;99.90
12130;DHT22;6128;59.340;18.040;2023-04-15T09:36:56;9.60;99.90
12130;DHT22;6128;59.340;18.040;2023-04-15T09:39:24;9.40;99.90
12130;DHT22;6128;59.340;18.040;2023-04-15T09:42:04;9.30;99.90
12130;DHT22;6128;59.340;18.040;2023-04-15T09:44:32;9.30;99.90
12130;DHT22;6128;59.340;18.040;2023-04-15T09:47:00;9.30;99.90
12130;DHT22;6128;59.340;18.040;2023-04-15T09:49:27;9.30;99.90
12130;DHT22;6128;59.340;18.040;2023-04-15T09:51:58;9.40;99.90
12130;DHT22;6128;59.340;18.040;2023-04-15T09:54:32;9.30;99.90
12130;DHT22;6128;59.340;18.040;2023-04-15T09:57:04;9.20;99.90
12130;DHT22;6128;59.340;18.040;2023-04-15T09:59:31;9.10;99.90
12130;DHT22;6128;59.340;18.040;2023-04-15T10:01:59;9.20;99.90
12130;DHT22;6128;59.340;18.040;2023-04-15T10:04:31;9.10;99.90
12130;DHT22;6128;59.340;18.040;2023-04-15T10:07:00;9.10;99.90
12130;DHT22;6128;59.340;18.040;2023-04-15T10:09:31;9.00;99.90
12130;DHT22;6128;59.340;18.040;2023-04-15T10:11:59;9.00;99.90
12130;DHT22;6128;59.340;18.040;2023-04-15T10:14:28;9.10;99.90
12130;DHT22;6128;59.340;18.040;2023-04-15T10:17:00;9.10;99.90
12130;DHT22;6128;59.340;18.040;2023-04-15T10:19:30;9.10;99.90
12130;DHT22;6128;59.340;18.040;2023-04-15T10:21:59;9.10;99.90
12130;DHT22;6128;59.340;18.040;2023-04-15T10:24:26;9.00;99.90
12130;DHT22;6128;59.340;18.040;2023-04-15T10:26:56;8.80;99.90
12130;DHT22;6128;59.340;18.040;2023-04-15T10:29:24;8.80;99.90
12130;DHT22;6128;59.340;18.040;2023-04-15T10:31:53;8.90;99.90
12130;DHT22;6128;59.340;18.040;2023-04-15T10:34:21;8.80;99.90
12130;DHT22;6128;59.340;18.040;2023-04-15T10:36:49;8.80;99.90
12130;DHT22;6128;59.340;18.040;2023-04-15T10:39:41;8.90;99.90
12130;DHT22;6128;59.340;18.040;2023-04-15T10:42:11;9.00;99.90
12130;DHT22;6128;59.340;18.040;2023-04-15T10:44:42;9.00;99.90
12130;DHT22;6128;59.340;18.040;2023-04-15T10:47:10;9.10;99.90
12130;DHT22;6128;59.340;18.040;2023-04-15T10:49:46;9.00;99.90
12130;DHT22;6128;59.340;18.040;2023-04-15T10:52:14;9.10;99.90
12130;DHT22;6128;59.340;18.040;2023-04-15T10:54:42;9.10;99.90
12130;DHT22;6128;59.340;18.040;2023-04-15T10:57:15;9.20;99.90
12130;DHT22;6128;59.340;18.040;2023-04-15T11:00:08;9.20;99.90
12130;DHT22;6128;59.340;18.040;2023-04-15T11:02:41;9.20;99.90
12130;DHT22;6128;59.340;18.040;2023-04-15T11:05:08;9.20;99.90
12130;DHT22;6128;59.340;18.040;2023-04-15T11:07:37;9.20;99.90
12130;DHT22;6128;59.340;18.040;2023-04-15T11:13:25;9.10;99.90
12130;DHT22;6128;59.340;18.040;2023-04-15T11:15:56;9.00;99.90
12130;DHT22;6128;59.340;18.040;2023-04-15T11:18:26;9.10;99.90
12130;DHT22;6128;59.340;18.040;2023-04-15T11:20:56;9.30;99.90
12130;DHT22;6128;59.340;18.040;2023-04-15T11:23:29;9.20;99.90
12130;DHT22;6128;59.340;18.040;2023-04-15T11:25:57;9.20;99.90
12130;DHT22;6128;59.340;18.040;2023-04-15T11:28:29;9.30;99.90
12130;DHT22;6128;59.340;18.040;2023-04-15T11:30:57;9.40;99.90
12130;DHT22;6128;59.340;18.040;2023-04-15T11:33:24;9.50;99.90
12130;DHT22;6128;59.340;18.040;2023-04-15T11:35:52;9.30;99.90
12130;DHT22;6128;59.340;18.040;2023-04-15T11:38:20;9.30;99.90
12130;DHT22;6128;59.340;18.040;2023-04-15T11:40:49;9.30;99.90
12130;DHT22;6128;59.340;18.040;2023-04-15T11:43:18;9.30;99.90
12130;DHT22;6128;59.340;18.040;2023-04-15T11:45:51;9.30;99.90
12130;DHT22;6128;59.340;18.040;2023-04-15T11:48:20;9.30;99.90
12130;DHT22;6128;59.340;18.040;2023-04-15T11:50:53;9.30;99.90
12130;DHT22;6128;59.340;18.040;2023-04-15T11:53:20;9.40;99.90
12130;DHT22;6128;59.340;18.040;2023-04-15T11:55:49;9.50;99.90
12130;DHT22;6128;59.340;18.040;2023-04-15T11:58:18;9.40;99.90
12130;DHT22;6128;59.340;18.040;2023-04-15T12:00:46;9.50;99.90
12130;DHT22;6128;59.340;18.040;2023-04-15T12:03:17;9.30;99.90
12130;DHT22;6128;59.340;18.040;2023-04-15T12:06:03;9.10;99.90
12130;DHT22;6128;59.340;18.040;2023-04-15T12:08:56;9.00;99.90
12130;DHT22;6128;59.340;18.040;2023-04-15T12:11:29;9.10;99.90
12130;DHT22;6128;59.340;18.040;2023-04-15T12:13:58;9.20;99.90
12130;DHT22;6128;59.340;18.040;2023-04-15T12:16:27;9.30;99.90
12130;DHT22;6128;59.340;18.040;2023-04-15T12:18:56;9.30;99.90
12130;DHT22;6128;59.340;18.040;2023-04-15T12:21:26;9.40;99.90
12130;DHT22;6128;59.340;18.040;2023-04-15T12:23:55;9.50;99.90
12130;DHT22;6128;59.340;18.040;2023-04-15T12:26:26;9.40;99.90
12130;DHT22;6128;59.340;18.040;2023-04-15T12:28:54;9.50;99.90
12130;DHT22;6128;59.340;18.040;2023-04-15T12:31:22;9.30;99.90
12130;DHT22;6128;59.340;18.040;2023-04-15T12:33:49;9.10;99.90
12130;DHT22;6128;59.340;18.040;2023-04-15T12:36:18;9.10;99.90
12130;DHT22;6128;59.340;18.040;2023-04-15T12:38:45;9.00;99.90
12130;DHT22;6128;59.340;18.040;2023-04-15T12:41:12;8.90;99.90
12130;DHT22;6128;59.340;18.040;2023-04-15T12:43:39;8.90;99.90
12130;DHT22;6128;59.340;18.040;2023-04-15T12:46:06;8.90;99.90
12130;DHT22;6128;59.340;18.040;2023-04-15T12:48:35;8.90;99.90
12130;DHT22;6128;59.340;18.040;2023-04-15T12:51:02;9.10;99.90
12130;DHT22;6128;59.340;18.040;2023-04-15T12:53:30;9.10;99.90
12130;DHT22;6128;59.340;18.040;2023-04-15T12:55:59;9.00;99.90
12130;DHT22;6128;59.340;18.040;2023-04-15T12:58:26;8.90;99.90
12130;DHT22;6128;59.340;18.040;2023-04-15T13:00:53;8.90;99.90
12130;DHT22;6128;59.340;18.040;2023-04-15T13:03:20;8.90;99.90
12130;DHT22;6128;59.340;18.040;2023-04-15T13:05:47;9.10;99.90
12130;DHT22;6128;59.340;18.040;2023-04-15T13:08:15;9.10;99.90
12130;DHT22;6128;59.340;18.040;2023-04-15T13:10:43;9.10;99.90
12130;DHT22;6128;59.340;18.040;2023-04-15T13:13:11;9.10;99.90
12130;DHT22;6128;59.340;18.040;2023-04-15T13:15:38;9.10;99.90
12130;DHT22;6128;59.340;18.040;2023-04-15T13:18:06;9.10;99.90
12130;DHT22;6128;59.340;18.040;2023-04-15T13:20:33;9.10;99.90
12130;DHT22;6128;59.340;18.040;2023-04-15T13:23:00;9.10;99.90
12130;DHT22;6128;59.340;18.040;2023-04-15T13:25:27;9.10;99.90
12130;DHT22;6128;59.340;18.040;2023-04-15T13:27:56;9.10;99.90
12130;DHT22;6128;59.340;18.040;2023-04-15T13:30:23;9.10;99.90
12130;DHT22;6128;59.340;18.040;2023-04-15T13:32:50;9.00;99.90
12130;DHT22;6128;59.340;18.040;2023-04-15T13:35:18;8.80;99.90
12130;DHT22;6128;59.340;18.040;2023-04-15T13:37:46;8.90;99.90
12130;DHT22;6128;59.340;18.040;2023-04-15T13:40:13;9.00;99.90
12130;DHT22;6128;59.340;18.040;2023-04-15T13:42:41;9.00;99.90
12130;DHT22;6128;59.340;18.040;2023-04-15T13:45:10;9.00;99.90
12130;DHT22;6128;59.340;18.040;2023-04-15T13:47:37;9.10;99.90
12130;DHT22;6128;59.340;18.040;2023-04-15T13:50:05;9.20;99.90
12130;DHT22;6128;59.340;18.040;2023-04-15T13:52:33;9.10;99.80
12130;DHT22;6128;59.340;18.040;2023-04-15T13:55:00;8.90;99.80
12130;DHT22;6128;59.340;18.040;2023-04-15T13:57:27;8.80;99.70
12130;DHT22;6128;59.340;18.040;2023-04-15T13:59:54;8.70;99.60
12130;DHT22;6128;59.340;18.040;2023-04-15T14:02:23;8.60;99.60
12130;DHT22;6128;59.340;18.040;2023-04-15T14:04:50;8.60;99.40
12130;DHT22;6128;59.340;18.040;2023-04-15T14:07:17;8.50;99.40
12130;DHT22;6128;59.340;18.040;2023-04-15T14:09:45;8.50;99.40
12130;DHT22;6128;59.340;18.040;2023-04-15T14:12:13;8.60;99.40
12130;DHT22;6128;59.340;18.040;2023-04-15T14:14:40;8.50;99.40
12130;DHT22;6128;59.340;18.040;2023-04-15T14:17:07;8.50;99.40
12130;DHT22;6128;59.340;18.040;2023-04-15T14:19:36;8.50;99.50
12130;DHT22;6128;59.340;18.040;2023-04-15T14:22:03;8.50;99.50
12130;DHT22;6128;59.340;18.040;2023-04-15T14:24:31;8.50;99.40
12130;DHT22;6128;59.340;18.040;2023-04-15T14:26:58;8.60;99.40
12130;DHT22;6128;59.340;18.040;2023-04-15T14:29:26;8.70;99.40
12130;DHT22;6128;59.340;18.040;2023-04-15T14:31:54;8.70;99.30
12130;DHT22;6128;59.340;18.040;2023-04-15T14:34:23;8.60;99.20
12130;DHT22;6128;59.340;18.040;2023-04-15T14:36:52;8.50;99.10
12130;DHT22;6128;59.340;18.040;2023-04-15T14:39:19;8.50;99.00
12130;DHT22;6128;59.340;18.040;2023-04-15T14:41:46;8.50;99.00
12130;DHT22;6128;59.340;18.040;2023-04-15T14:44:14;8.50;98.90
12130;DHT22;6128;59.340;18.040;2023-04-15T14:46:41;8.50;98.80
12130;DHT22;6128;59.340;18.040;2023-04-15T14:49:08;8.40;98.80
12130;DHT22;6128;59.340;18.040;2023-04-15T14:51:36;8.30;98.80
12130;DHT22;6128;59.340;18.040;2023-04-15T14:54:07;8.30;98.80
12130;DHT22;6128;59.340;18.040;2023-04-15T14:56:34;8.30;98.70
12130;DHT22;6128;59.340;18.040;2023-04-15T14:59:01;8.20;98.60
12130;DHT22;6128;59.340;18.040;2023-04-15T15:01:28;8.10;98.50
12130;DHT22;6128;59.340;18.040;2023-04-15T15:03:55;8.20;98.50
12130;DHT22;6128;59.340;18.040;2023-04-15T15:06:22;8.20;98.50
12130;DHT22;6128;59.340;18.040;2023-04-15T15:08:50;8.20;98.40
12130;DHT22;6128;59.340;18.040;2023-04-15T15:11:19;8.30;98.40
12130;DHT22;6128;59.340;18.040;2023-04-15T15:13:46;8.30;98.40
12130;DHT22;6128;59.340;18.040;2023-04-15T15:16:13;8.30;98.20
12130;DHT22;6128;59.340;18.040;2023-04-15T15:18:40;8.20;98.10
12130;DHT22;6128;59.340;18.040;2023-04-15T15:21:07;8.20;98.10
12130;DHT22;6128;59.340;18.040;2023-04-15T15:23:34;8.20;98.10
12130;DHT22;6128;59.340;18.040;2023-04-15T15:26:01;8.10;98.10
12130;DHT22;6128;59.340;18.040;2023-04-15T15:28:30;8.10;98.10
12130;DHT22;6128;59.340;18.040;2023-04-15T15:30:57;8.10;98.20
12130;DHT22;6128;59.340;18.040;2023-04-15T15:33:24;8.10;98.20
12130;DHT22;6128;59.340;18.040;2023-04-15T15:35:51;8.10;98.10
12130;DHT22;6128;59.340;18.040;2023-04-15T15:38:18;8.00;98.10
12130;DHT22;6128;59.340;18.040;2023-04-15T15:40:45;8.00;98.10
12130;DHT22;6128;59.340;18.040;2023-04-15T15:43:12;8.00;98.10
12130;DHT22;6128;59.340;18.040;2023-04-15T15:45:41;8.10;98.20
12130;DHT22;6128;59.340;18.040;2023-04-15T15:48:08;8.10;98.20
12130;DHT22;6128;59.340;18.040;2023-04-15T15:50:35;8.10;98.30
12130;DHT22;6128;59.340;18.040;2023-04-15T15:53:02;8.00;98.30